Time;durP1;ratioP1;P1;durP2;ratioP2;P2;SDS_P1;SDS_P2;PMS_P1;PMS_P2;Temp;Humidity;BMP_temperature;BMP_pressure;BME280_temperature;BME280_humidity;BME280_pressure;Samples;Min_cycle;Max_cycle;Signal;HPM_P1;HPM_P2
2022/04/29 00:00:07;;;;;;;11.53;7.37;;;;;;;11.26;100.00;96288.34;5154369;27;20183;-57
2022/04/29 00:02:32;;;;;;;8.53;7.27;;;;;;;11.16;100.00;96291.84;5154258;27;20177;-54
2022/04/29 00:04:58;;;;;;;9.47;7.60;;;;;;;11.29;100.00;96292.28;5154288;27;20589;-63
2022/04/29 00:07:23;;;;;;;12.80;7.87;;;;;;;11.25;100.00;96286.78;5154468;27;20271;-48
2022/04/29 00:09:49;;;;;;;9.87;7.13;;;;;;;11.30;100.00;96288.34;5154505;27;20227;-46
2022/04/29 00:12:14;;;;;;;9.87;6.87;;;;;;;11.20;100.00;96283.63;5153996;27;20242;-48
2022/04/29 00:14:40;;;;;;;9.80;7.13;;;;;;;11.20;100.00;96280.91;5154100;27;20220;-49
2022/04/29 00:17:05;;;;;;;10.63;7.20;;;;;;;11.08;100.00;96275.78;5154321;27;20214;-49
2022/04/29 00:19:32;;;;;;;8.90;6.90;;;;;;;11.03;100.00;96273.44;5154537;27;20192;-52
2022/04/29 00:21:58;;;;;;;7.40;6.63;;;;;;;10.98;100.00;96266.38;5154464;27;20231;-60
2022/04/29 00:24:24;;;;;;;8.70;7.30;;;;;;;10.96;100.00;96270.66;5170986;27;20216;-60
2022/04/29 00:26:49;;;;;;;12.17;7.03;;;;;;;10.94;100.00;96264.78;5133170;27;20221;-61
2022/04/29 00:29:15;;;;;;;7.73;6.77;;;;;;;11.02;100.00;96266.38;5133196;27;20693;-60
2022/04/29 00:31:40;;;;;;;7.87;6.97;;;;;;;10.86;100.00;96271.38;5133535;27;20184;-60
2022/04/29 00:34:06;;;;;;;7.27;6.47;;;;;;;10.85;100.00;96267.09;5133344;27;20192;-61
2022/04/29 00:36:32;;;;;;;7.87;6.83;;;;;;;10.85;100.00;96269.81;5133481;27;20181;-60
2022/04/29 00:38:58;;;;;;;7.97;7.17;;;;;;;10.80;100.00;96264.72;5132855;27;20188;-63
2022/04/29 00:41:23;;;;;;;10.53;7.07;;;;;;;10.70;100.00;96266.22;5133243;27;20182;-63
2022/04/29 00:44:22;;;;;;;7.50;6.70;;;;;;;10.96;100.00;96262.47;5133625;27;20208;-59
2022/04/29 00:46:50;;;;;;;8.70;6.70;;;;;;;10.72;100.00;96260.38;5088175;28;20231;-59
2022/04/29 00:49:39;;;;;;;8.03;7.20;;;;;;;10.61;100.00;96259.53;5088087;28;20601;-59
2022/04/29 00:52:27;;;;;;;9.13;7.47;;;;;;;10.61;100.00;96246.69;5030872;28;20204;-60
2022/04/29 00:54:57;;;;;;;8.30;7.00;;;;;;;10.60;100.00;96252.53;4967502;28;20210;-59
2022/04/29 00:57:32;;;;;;;8.23;7.10;;;;;;;10.59;100.00;96256.41;4975483;28;20246;-59
2022/04/29 01:00:08;;;;;;;8.40;7.03;;;;;;;10.55;100.00;96244.66;4959478;28;20214;-64
2022/04/29 01:02:37;;;;;;;9.53;6.63;;;;;;;10.49;100.00;96248.94;4959248;28;20209;-53
2022/04/29 01:05:07;;;;;;;8.33;7.17;;;;;;;10.49;100.00;96243.47;4975522;28;20249;-52
2022/04/29 01:07:34;;;;;;;8.53;7.07;;;;;;;10.25;100.00;96244.09;4975852;28;20201;-55
2022/04/29 01:10:00;;;;;;;9.60;6.87;;;;;;;10.40;100.00;96241.09;4975957;28;20190;-54
2022/04/29 01:12:28;;;;;;;7.80;7.00;;;;;;;10.41;100.00;96236.41;4959127;28;20301;-54
2022/04/29 01:14:55;;;;;;;9.23;7.20;;;;;;;10.25;100.00;96228.50;4959020;28;20191;-54
2022/04/29 01:17:21;;;;;;;8.40;7.23;;;;;;;10.29;100.00;96223.84;4991024;28;20214;-64
2022/04/29 01:19:46;;;;;;;8.87;6.70;;;;;;;10.18;100.00;96217.53;5034018;28;20208;-63
2022/04/29 01:22:11;;;;;;;8.07;6.77;;;;;;;10.19;100.00;96218.34;5039843;28;20346;-63
2022/04/29 01:24:37;;;;;;;7.17;6.47;;;;;;;10.10;100.00;96227.63;5056783;28;20218;-63
2022/04/29 01:27:10;;;;;;;7.70;6.90;;;;;;;10.10;100.00;96226.84;5057130;28;20190;-63
2022/04/29 01:29:39;;;;;;;8.27;7.20;;;;;;;10.17;100.00;96228.84;5056916;28;20677;-64
2022/04/29 01:32:07;;;;;;;8.03;7.03;;;;;;;10.03;100.00;96224.03;5083450;28;20268;-64
2022/04/29 01:34:32;;;;;;;7.93;6.93;;;;;;;10.14;100.00;96228.41;5118856;28;20280;-65
2022/04/29 01:36:57;;;;;;;7.37;6.60;;;;;;;10.12;100.00;96229.19;5118924;28;20243;-60
2022/04/29 01:39:23;;;;;;;9.47;7.03;;;;;;;10.08;100.00;96224.50;5119146;28;20226;-54
2022/04/29 01:41:48;;;;;;;6.97;6.20;;;;;;;9.89;100.00;96232.09;5118471;28;20214;-55
2022/04/29 01:44:13;;;;;;;8.37;6.80;;;;;;;10.09;100.00;96231.50;5118323;28;20205;-53
2022/04/29 01:46:39;;;;;;;8.47;6.77;;;;;;;10.08;100.00;96229.97;5118005;28;20188;-53
2022/04/29 01:49:04;;;;;;;8.67;6.67;;;;;;;9.91;100.00;96229.81;5118339;28;20190;-54
2022/04/29 01:51:29;;;;;;;7.93;6.63;;;;;;;10.06;100.00;96224.09;5118271;28;20180;-55
2022/04/29 01:53:54;;;;;;;8.30;6.73;;;;;;;10.02;100.00;96225.97;5118858;28;20207;-65
2022/04/29 01:56:32;;;;;;;9.70;6.83;;;;;;;10.04;100.00;96222.88;5118218;28;20226;-64
2022/04/29 01:59:02;;;;;;;7.60;6.77;;;;;;;10.04;100.00;96222.88;5118935;28;20179;-64
2022/04/29 02:01:27;;;;;;;8.23;6.40;;;;;;;9.80;100.00;96223.47;5118002;28;20290;-65
2022/04/29 02:03:54;;;;;;;9.27;7.13;;;;;;;9.75;100.00;96226.53;5118149;28;20280;-65
2022/04/29 02:06:20;;;;;;;8.43;6.97;;;;;;;9.75;100.00;96221.06;5117429;28;20185;-65
2022/04/29 02:08:45;;;;;;;9.73;6.70;;;;;;;9.77;100.00;96224.22;5117908;28;20228;-64
2022/04/29 02:11:10;;;;;;;9.37;7.50;;;;;;;9.71;100.00;96215.59;5118157;28;20183;-61
2022/04/29 02:13:37;;;;;;;8.53;6.70;;;;;;;9.63;100.00;96214.00;5136103;28;20193;-56
2022/04/29 02:16:03;;;;;;;7.00;6.30;;;;;;;9.57;100.00;96210.03;5117800;28;20184;-65
2022/04/29 02:18:28;;;;;;;6.73;6.07;;;;;;;9.59;100.00;96213.16;5117965;28;20192;-65
2022/04/29 02:20:53;;;;;;;8.03;6.67;;;;;;;9.57;100.00;96210.03;5117878;28;20183;-65
2022/04/29 02:23:19;;;;;;;7.70;6.90;;;;;;;9.32;100.00;96200.84;5117876;28;20199;-65
2022/04/29 02:25:44;;;;;;;8.23;6.33;;;;;;;9.25;100.00;96197.28;5117429;28;20636;-65
2022/04/29 02:28:09;;;;;;;9.37;6.53;;;;;;;9.40;100.00;96205.19;5118182;28;20276;-66
2022/04/29 02:30:34;;;;;;;11.33;6.37;;;;;;;9.43;100.00;96201.72;5117561;28;20220;-55
2022/04/29 02:33:00;;;;;;;8.77;6.40;;;;;;;9.39;100.00;96203.63;5117902;28;20187;-64
2022/04/29 02:35:25;;;;;;;8.07;6.60;;;;;;;9.44;100.00;96197.81;5117573;28;20171;-65
2022/04/29 02:37:50;;;;;;;7.73;6.20;;;;;;;9.41;100.00;96200.53;5117705;28;20240;-65
2022/04/29 02:40:16;;;;;;;9.80;6.00;;;;;;;9.28;100.00;96200.03;5117613;28;20174;-64
2022/04/29 02:42:41;;;;;;;8.27;6.33;;;;;;;9.25;100.00;96189.88;5117378;28;20192;-65
2022/04/29 02:45:07;;;;;;;9.00;6.50;;;;;;;9.34;100.00;96190.34;5117367;28;20532;-65
2022/04/29 02:47:32;;;;;;;8.03;6.90;;;;;;;9.22;100.00;96193.31;5117063;28;20197;-56
2022/04/29 02:49:58;;;;;;;8.60;6.80;;;;;;;9.28;100.00;96196.50;5118245;28;20188;-47
2022/04/29 02:52:23;;;;;;;9.73;7.50;;;;;;;9.25;100.00;96192.59;5117868;28;20236;-45
2022/04/29 02:54:49;;;;;;;8.40;6.73;;;;;;;9.20;100.00;96190.22;5117551;28;20183;-51
2022/04/29 02:57:14;;;;;;;9.93;6.80;;;;;;;9.15;100.00;96193.25;5117089;28;20642;-48
2022/04/29 02:59:40;;;;;;;10.77;6.93;;;;;;;9.16;100.00;96186.66;5117099;28;20187;-48
2022/04/29 03:02:06;;;;;;;8.10;6.57;;;;;;;9.15;100.00;96176.91;5117033;28;20274;-46
2022/04/29 03:04:31;;;;;;;10.93;6.90;;;;;;;9.02;100.00;96167.44;5117017;28;20210;-49
2022/04/29 03:06:56;;;;;;;7.30;6.50;;;;;;;9.17;100.00;96180.06;5117416;28;20300;-50
2022/04/29 03:09:22;;;;;;;10.53;7.70;;;;;;;9.13;100.00;96168.34;5117200;28;20274;-66
2022/04/29 03:11:50;;;;;;;8.53;6.93;;;;;;;9.14;100.00;96163.69;5117062;28;20539;-66
2022/04/29 03:14:15;;;;;;;8.40;6.33;;;;;;;9.00;100.00;96163.53;5117522;28;20199;-66
2022/04/29 03:16:41;;;;;;;8.53;6.20;;;;;;;9.08;100.00;96155.06;5117154;28;20188;-66
2022/04/29 03:19:08;;;;;;;9.60;6.17;;;;;;;9.06;100.00;96157.38;5116723;28;20550;-66
2022/04/29 03:21:34;;;;;;;7.73;6.17;;;;;;;8.99;100.00;96143.69;5116931;28;20191;-66
2022/04/29 03:24:01;;;;;;;8.13;6.43;;;;;;;9.02;100.00;96159.28;5117311;28;20206;-57
2022/04/29 03:26:26;;;;;;;9.37;6.67;;;;;;;8.96;100.00;96160.75;5116884;28;20280;-66
2022/04/29 03:28:51;;;;;;;9.07;5.90;;;;;;;8.93;100.00;96158.00;5116873;28;20183;-66
2022/04/29 03:31:17;;;;;;;7.83;6.30;;;;;;;8.88;100.00;96167.31;5116893;28;20178;-66
2022/04/29 03:33:42;;;;;;;7.33;6.20;;;;;;;8.88;100.00;96167.31;5117140;28;20187;-66
2022/04/29 03:36:08;;;;;;;9.13;6.20;;;;;;;8.89;100.00;96163.41;5116617;28;20205;-66
2022/04/29 03:38:35;;;;;;;8.70;6.53;;;;;;;8.83;100.00;96154.03;5116542;28;20207;-66
2022/04/29 03:41:01;;;;;;;8.40;5.83;;;;;;;8.85;100.00;96151.69;5116973;28;20187;-66
2022/04/29 03:43:27;;;;;;;6.80;6.10;;;;;;;8.80;100.00;96149.31;5116939;28;20229;-56
2022/04/29 03:45:53;;;;;;;8.27;6.60;;;;;;;8.74;100.00;96161.69;5116532;28;20282;-60
2022/04/29 03:48:18;;;;;;;9.00;6.27;;;;;;;8.71;100.00;96161.66;5116780;28;20273;-60
2022/04/29 03:50:44;;;;;;;11.20;6.53;;;;;;;8.76;100.00;96162.13;5116993;28;20527;-61
2022/04/29 03:53:09;;;;;;;6.97;5.90;;;;;;;8.86;100.00;96166.13;5117179;28;20201;-61
2022/04/29 03:55:35;;;;;;;8.63;6.50;;;;;;;8.70;100.00;96169.03;5116480;28;20630;-60
2022/04/29 03:58:02;;;;;;;6.93;6.13;;;;;;;8.70;100.00;96160.88;5116651;28;20209;-60
2022/04/29 04:00:31;;;;;;;8.90;5.87;;;;;;;8.77;100.00;96166.41;5116480;28;20191;-61
2022/04/29 04:02:57;;;;;;;9.50;7.07;;;;;;;8.63;100.00;96166.22;5116604;28;20278;-56
2022/04/29 04:05:23;;;;;;;10.63;7.13;;;;;;;8.69;100.00;96169.41;5116583;28;20176;-61
2022/04/29 04:07:49;;;;;;;11.50;7.63;;;;;;;8.71;100.00;96162.44;5116874;28;20183;-62
2022/04/29 04:10:14;;;;;;;11.60;7.60;;;;;;;8.70;100.00;96160.88;5116313;28;20255;-61
2022/04/29 04:12:41;;;;;;;22.73;15.07;;;;;;;8.86;100.00;96153.25;5115972;28;20217;-62
2022/04/29 04:15:08;;;;;;;8.20;6.70;;;;;;;8.98;100.00;96165.84;5115980;28;20182;-61
2022/04/29 04:17:33;;;;;;;8.60;6.00;;;;;;;8.85;100.00;96162.59;5115801;28;20194;-61
2022/04/29 04:19:59;;;;;;;7.30;6.33;;;;;;;8.94;100.00;96165.81;5116007;28;20180;-66
2022/04/29 04:22:24;;;;;;;10.67;6.40;;;;;;;9.03;100.00;96174.47;5116213;28;20175;-65
2022/04/29 04:24:50;;;;;;;8.80;6.00;;;;;;;9.10;100.00;96169.09;5115931;28;20283;-66
2022/04/29 04:27:15;;;;;;;8.57;5.87;;;;;;;9.28;100.00;96185.59;5115908;28;20197;-65
2022/04/29 04:29:40;;;;;;;9.50;5.93;;;;;;;9.30;100.00;96184.09;5116344;28;20183;-66
2022/04/29 04:32:06;;;;;;;7.70;6.03;;;;;;;9.51;100.00;96189.72;5119757;28;20210;-65
2022/04/29 04:34:50;;;;;;;7.63;5.70;;;;;;;9.79;100.00;96189.94;5119339;28;20182;-66
2022/04/29 04:37:19;;;;;;;6.53;5.80;;;;;;;10.21;100.00;96194.16;5119533;28;20188;-65
2022/04/29 04:39:44;;;;;;;7.83;6.00;;;;;;;10.76;100.00;96192.88;5119860;28;20179;-56
2022/04/29 04:42:10;;;;;;;6.57;5.57;;;;;;;10.72;100.00;96203.00;5119689;28;20191;-61
2022/04/29 04:44:36;;;;;;;9.23;5.97;;;;;;;11.07;99.91;96203.16;5118883;28;20585;-61
2022/04/29 04:47:02;;;;;;;7.60;5.60;;;;;;;11.50;97.12;96204.78;5119314;28;20194;-61
2022/04/29 04:49:27;;;;;;;6.80;6.10;;;;;;;12.05;92.53;96204.06;5119678;28;20621;-61
2022/04/29 04:51:53;;;;;;;8.17;6.23;;;;;;;12.81;88.46;96198.81;5119209;28;20277;-61
2022/04/29 04:54:18;;;;;;;7.03;6.10;;;;;;;13.11;83.85;96199.09;5119148;28;20251;-61
2022/04/29 04:56:43;;;;;;;9.70;6.23;;;;;;;13.41;82.24;96191.09;5119219;28;20270;-64
2022/04/29 04:59:09;;;;;;;8.10;5.90;;;;;;;13.66;81.09;96191.69;5119394;28;20218;-62
2022/04/29 05:01:34;;;;;;;6.63;5.80;;;;;;;13.71;79.00;96193.22;5119394;28;20183;-66
2022/04/29 05:03:59;;;;;;;11.63;6.50;;;;;;;13.77;78.59;96200.63;5119369;28;20206;-66
2022/04/29 05:06:25;;;;;;;7.37;6.10;;;;;;;14.22;76.15;96196.78;5119070;28;20191;-65
2022/04/29 05:08:50;;;;;;;9.90;6.40;;;;;;;14.00;74.95;96205.56;5119151;28;20270;-66
2022/04/29 05:11:15;;;;;;;6.50;5.77;;;;;;;14.78;74.23;96198.94;5119018;28;20199;-66
2022/04/29 05:13:41;;;;;;;7.30;6.47;;;;;;;15.54;70.59;96188.13;5118755;28;20199;-65
2022/04/29 05:16:06;;;;;;;7.17;5.93;;;;;;;16.46;66.83;96186.66;5118837;28;20278;-67
2022/04/29 05:18:31;;;;;;;9.23;5.87;;;;;;;17.08;60.84;96192.16;5118432;28;20198;-63
2022/04/29 05:20:57;;;;;;;8.03;7.20;;;;;;;17.36;56.63;96186.03;5118493;28;20534;-59
2022/04/29 05:23:22;;;;;;;7.17;5.90;;;;;;;17.39;56.02;96191.50;5118637;28;20291;-60
2022/04/29 05:25:47;;;;;;;6.23;5.53;;;;;;;18.09;54.75;96181.59;5101441;28;20286;-60
2022/04/29 05:28:13;;;;;;;10.40;5.90;;;;;;;18.21;53.10;96189.19;5101219;28;20546;-60
2022/04/29 05:30:39;;;;;;;9.67;6.30;;;;;;;18.86;51.73;96184.34;5118158;28;20631;-59
2022/04/29 05:33:06;;;;;;;7.63;6.03;;;;;;;18.73;49.22;96191.84;5118805;28;20187;-49
2022/04/29 05:35:33;;;;;;;6.73;6.03;;;;;;;19.07;49.42;96189.28;5118365;28;20640;-58
2022/04/29 05:38:00;;;;;;;12.07;10.37;;;;;;;18.98;48.13;96191.94;5118393;28;20190;-57
2022/04/29 05:43:09;;;;;;;7.77;6.97;;;;;;;19.93;45.75;96184.34;5136349;28;20299;-58
2022/04/29 05:45:35;;;;;;;7.10;6.27;;;;;;;19.90;46.49;96178.91;5118287;28;20547;-57
2022/04/29 05:48:00;;;;;;;7.43;6.03;;;;;;;19.78;46.18;96186.03;5118753;28;20236;-56
2022/04/29 05:50:25;;;;;;;7.17;6.00;;;;;;;20.14;44.55;96178.13;5118112;28;20226;-56
2022/04/29 05:52:50;;;;;;;8.33;6.03;;;;;;;19.76;44.68;96182.13;5118041;28;20183;-65
2022/04/29 05:55:16;;;;;;;7.37;6.60;;;;;;;20.08;45.29;96177.13;5118119;28;20621;-54
2022/04/29 05:57:41;;;;;;;6.57;5.87;;;;;;;20.19;44.10;96185.91;5118070;28;20187;-54
2022/04/29 06:00:07;;;;;;;6.50;5.90;;;;;;;20.45;44.47;96176.31;5118436;28;20197;-54
2022/04/29 06:02:33;;;;;;;6.73;6.03;;;;;;;20.89;44.00;96183.50;5117755;28;20183;-55
2022/04/29 06:05:03;;;;;;;7.40;6.20;;;;;;;21.04;42.68;96184.56;5118475;28;20214;-54
2022/04/29 06:07:28;;;;;;;6.93;6.17;;;;;;;21.37;41.72;96179.38;5117816;28;20194;-54
2022/04/29 06:09:54;;;;;;;7.10;6.20;;;;;;;21.82;40.52;96188.75;5117936;28;20183;-48
2022/04/29 06:12:19;;;;;;;10.10;6.07;;;;;;;21.68;40.74;96185.75;5117870;28;20183;-51
2022/04/29 06:14:45;;;;;;;9.03;6.10;;;;;;;21.18;42.04;96184.06;5117695;28;20190;-57
2022/04/29 06:17:12;;;;;;;7.17;6.10;;;;;;;22.55;39.57;96189.03;5117689;28;20179;-57
2022/04/29 06:19:37;;;;;;;9.10;6.27;;;;;;;22.89;38.16;96191.53;5117761;28;20277;-58
2022/04/29 06:22:04;;;;;;;6.67;5.93;;;;;;;23.38;37.30;96178.22;5117689;28;20215;-58
2022/04/29 06:24:30;;;;;;;6.47;5.87;;;;;;;23.29;37.01;96197.75;5117423;27;20286;-61
2022/04/29 06:26:55;;;;;;;6.33;5.47;;;;;;;23.13;36.92;96189.69;5117566;28;20670;-59
2022/04/29 06:29:20;;;;;;;6.70;5.83;;;;;;;23.59;36.42;96191.97;5117607;28;20194;-61
2022/04/29 06:31:46;;;;;;;7.93;5.63;;;;;;;23.88;35.99;96189.41;5117718;28;20592;-58
2022/04/29 06:34:11;;;;;;;7.30;5.87;;;;;;;23.22;36.23;96192.47;5117554;28;20187;-58
2022/04/29 06:36:36;;;;;;;6.70;6.00;;;;;;;23.26;37.03;96190.31;5117618;28;20183;-58
2022/04/29 06:39:01;;;;;;;8.23;6.10;;;;;;;24.49;35.30;96188.84;5117317;28;20624;-59
2022/04/29 06:41:27;;;;;;;6.03;5.47;;;;;;;24.95;34.37;96184.50;5117263;28;20218;-58
2022/04/29 06:43:53;;;;;;;7.00;6.30;;;;;;;25.54;33.69;96187.44;5116866;28;20346;-59
2022/04/29 06:46:19;;;;;;;9.10;6.30;;;;;;;25.72;32.60;96188.03;5117091;28;20273;-62
2022/04/29 06:48:45;;;;;;;7.43;5.90;;;;;;;25.19;33.53;96190.06;5117521;28;20180;-58
2022/04/29 06:51:11;;;;;;;8.13;5.47;;;;;;;25.17;33.32;96192.56;5117054;28;20187;-62
2022/04/29 06:53:39;;;;;;;7.47;5.70;;;;;;;25.53;34.00;96186.66;5116532;28;20731;-61
2022/04/29 06:56:05;;;;;;;6.10;5.50;;;;;;;26.41;32.04;96188.16;5117302;28;20278;-61
2022/04/29 06:58:31;;;;;;;7.80;6.03;;;;;;;25.79;31.80;96189.66;5117088;28;20203;-62
2022/04/29 07:00:56;;;;;;;5.70;5.17;;;;;;;26.90;31.52;96190.88;5116914;28;20547;-61
2022/04/29 07:03:22;;;;;;;5.67;5.17;;;;;;;26.89;30.60;96199.78;5117345;28;20206;-61
2022/04/29 07:05:50;;;;;;;5.80;4.30;;;;;;;23.97;32.70;96208.16;5117355;28;20648;-60
2022/04/29 07:08:16;;;;;;;6.20;4.63;;;;;;;25.27;31.99;96208.00;5116916;28;20183;-50
2022/04/29 07:10:42;;;;;;;7.33;4.70;;;;;;;25.16;31.57;96210.59;5117185;28;20271;-54
2022/04/29 07:13:07;;;;;;;4.93;4.40;;;;;;;27.21;29.39;96210.66;5116722;28;20183;-54
2022/04/29 07:15:32;;;;;;;5.97;4.10;;;;;;;28.46;28.18;96211.66;5116808;28;20218;-53
2022/04/29 07:17:58;;;;;;;6.07;4.10;;;;;;;27.74;28.32;96207.41;5116892;28;20190;-52
2022/04/29 07:20:23;;;;;;;4.10;3.70;;;;;;;27.01;28.86;96202.22;5116811;28;20232;-50
2022/04/29 07:22:49;;;;;;;4.60;4.20;;;;;;;28.62;27.59;96207.41;5116663;28;20632;-64
2022/04/29 07:25:14;;;;;;;4.83;4.37;;;;;;;27.96;28.02;96202.78;5116973;28;20199;-68
2022/04/29 07:27:41;;;;;;;5.43;4.03;;;;;;;26.22;28.79;96198.03;5117064;28;20187;-51
2022/04/29 07:30:08;;;;;;;4.30;3.90;;;;;;;28.22;27.10;96197.91;5117014;28;20640;-53
2022/04/29 07:32:34;;;;;;;4.63;3.97;;;;;;;27.54;27.32;96193.44;5116799;28;20259;-56
2022/04/29 07:43:13;;;;;;;4.20;3.80;;;;;;;28.73;24.85;96185.72;5134763;28;20198;-57
2022/04/29 07:45:39;;;;;;;4.43;4.03;;;;;;;26.63;26.86;96191.28;5116430;28;20190;-55
2022/04/29 07:48:06;;;;;;;4.63;4.20;;;;;;;25.45;26.73;96174.28;5116594;28;20183;-57
2022/04/29 07:50:33;;;;;;;4.97;4.50;;;;;;;25.68;26.56;96179.06;5117095;28;20281;-58
2022/04/29 07:53:00;;;;;;;4.90;4.13;;;;;;;25.43;27.82;96174.03;5134581;28;20179;-57
2022/04/29 07:55:25;;;;;;;5.33;4.27;;;;;;;25.91;26.43;96171.78;5116597;28;20278;-57
2022/04/29 07:57:51;;;;;;;4.50;4.10;;;;;;;24.42;28.08;96174.44;5116346;28;20206;-55
2022/04/29 08:00:17;;;;;;;5.03;4.23;;;;;;;24.66;27.46;96197.63;5116516;28;20202;-68
2022/04/29 08:02:43;;;;;;;4.47;4.07;;;;;;;25.32;27.00;96166.19;5116798;28;20179;-68
2022/04/29 08:05:08;;;;;;;4.43;4.00;;;;;;;24.62;27.48;96157.91;5117644;28;20605;-52
2022/04/29 08:07:33;;;;;;;5.50;4.60;;;;;;;23.98;27.84;96184.59;5120414;28;20619;-54
2022/04/29 08:09:59;;;;;;;5.43;4.00;;;;;;;24.86;27.05;96164.22;5119572;28;20187;-52
2022/04/29 08:12:28;;;;;;;7.77;4.50;;;;;;;25.69;25.79;96166.59;5119653;28;20186;-52
2022/04/29 08:14:53;;;;;;;5.00;4.40;;;;;;;26.27;25.79;96166.53;5119822;28;20659;-54
2022/04/29 08:17:23;;;;;;;5.57;4.67;;;;;;;24.03;26.00;96167.19;5119592;28;20208;-54
2022/04/29 08:19:49;;;;;;;6.37;4.67;;;;;;;24.65;26.28;96162.50;5119800;28;20188;-58
2022/04/29 08:22:15;;;;;;;4.40;4.00;;;;;;;26.63;24.91;96154.84;5119887;28;20175;-58
2022/04/29 08:24:41;;;;;;;5.33;4.50;;;;;;;24.16;26.21;96176.13;5119323;28;20219;-58
2022/04/29 08:27:06;;;;;;;6.83;4.23;;;;;;;24.48;27.00;96158.59;5119729;28;20227;-58
2022/04/29 08:29:31;;;;;;;6.13;4.37;;;;;;;26.03;24.70;96140.69;5119502;28;20296;-58
2022/04/29 08:31:57;;;;;;;5.87;4.40;;;;;;;24.47;26.10;96154.25;5119084;28;20183;-58
2022/04/29 08:34:22;;;;;;;6.60;4.77;;;;;;;23.94;26.34;96168.03;5119358;28;20187;-56
2022/04/29 08:36:48;;;;;;;5.10;4.53;;;;;;;24.90;26.29;96145.25;5119571;28;20248;-62
2022/04/29 08:39:14;;;;;;;4.60;4.20;;;;;;;27.08;24.62;96145.72;5119733;28;20225;-58
2022/04/29 08:41:40;;;;;;;5.10;4.60;;;;;;;24.75;26.04;96145.22;5102332;28;20191;-66
2022/04/29 08:44:10;;;;;;;5.00;4.50;;;;;;;25.30;25.45;96163.09;5119192;28;20235;-65
2022/04/29 08:46:38;;;;;;;5.03;4.53;;;;;;;25.36;26.13;96132.44;5119129;28;20655;-65
2022/04/29 08:49:05;;;;;;;6.77;4.80;;;;;;;25.86;25.80;96131.25;5119191;28;20190;-69
2022/04/29 08:51:30;;;;;;;5.23;4.30;;;;;;;27.42;24.40;96136.41;5119224;28;20175;-67
2022/04/29 08:53:57;;;;;;;5.00;4.50;;;;;;;26.05;25.39;96132.59;5119009;28;20198;-67
2022/04/29 08:59:07;;;;;;;6.53;4.77;;;;;;;25.71;25.36;96124.88;5137388;28;20186;-60
2022/04/29 09:01:32;;;;;;;5.13;4.60;;;;;;;25.47;24.99;96126.25;5118797;28;20184;-59
2022/04/29 09:03:57;;;;;;;5.67;4.23;;;;;;;26.77;24.00;96111.94;5119332;28;20210;-61
2022/04/29 09:06:23;;;;;;;5.10;3.87;;;;;;;24.33;24.36;96146.56;5119098;28;20218;-62
2022/04/29 09:08:50;;;;;;;8.20;4.57;;;;;;;25.44;24.39;96100.00;5118954;28;20634;-63
2022/04/29 09:11:24;;;;;;;5.43;4.03;;;;;;;26.19;24.21;96103.78;5119109;28;20228;-63
2022/04/29 09:13:50;;;;;;;5.00;4.43;;;;;;;24.77;24.91;96108.41;5119309;28;20213;-66
2022/04/29 09:16:15;;;;;;;5.00;4.50;;;;;;;25.90;25.10;96103.81;5118191;28;20632;-57
2022/04/29 09:18:44;;;;;;;6.17;3.87;;;;;;;25.71;24.15;96096.88;5119018;28;20183;-68
2022/04/29 09:21:12;;;;;;;4.63;4.23;;;;;;;26.28;24.28;96089.63;5118537;28;20236;-66
2022/04/29 09:23:59;;;;;;;7.63;4.60;;;;;;;26.19;24.76;96098.19;5118384;28;20205;-65
2022/04/29 09:26:33;;;;;;;4.50;4.07;;;;;;;27.80;23.51;96093.88;5118508;28;20207;-64
2022/04/29 09:29:12;;;;;;;5.70;4.90;;;;;;;25.78;24.31;96093.69;5118931;28;20179;-68
2022/04/29 09:31:54;;;;;;;4.60;4.20;;;;;;;25.24;25.68;96108.28;5118324;28;20187;-53
2022/04/29 09:34:20;;;;;;;4.73;4.23;;;;;;;26.79;24.60;96089.78;5118767;28;20699;-61
2022/04/29 09:36:47;;;;;;;5.00;4.30;;;;;;;25.32;25.88;96104.63;5118520;28;20608;-64
2022/04/29 09:39:27;;;;;;;5.73;4.43;;;;;;;25.63;26.17;96078.94;5118369;28;20179;-65
2022/04/29 09:42:05;;;;;;;5.83;4.80;;;;;;;22.53;29.37;96092.03;5118648;28;20589;-63
2022/04/29 09:44:33;;;;;;;6.13;5.10;;;;;;;23.82;28.81;96084.47;5118091;28;20285;-64
2022/04/29 09:47:13;;;;;;;5.93;5.10;;;;;;;24.76;27.78;96098.47;5118091;28;20243;-66
2022/04/29 09:49:40;;;;;;;6.00;4.90;;;;;;;24.89;27.53;96085.00;5118561;28;20179;-66
2022/04/29 09:52:07;;;;;;;6.60;4.80;;;;;;;26.64;26.22;96071.50;5118588;28;20178;-65
2022/04/29 09:54:39;;;;;;;5.20;4.70;;;;;;;26.86;26.75;96086.56;5118685;28;20183;-54
2022/04/29 09:57:15;;;;;;;5.90;4.90;;;;;;;25.78;27.18;96088.09;5118433;28;20530;-52
2022/04/29 09:59:40;;;;;;;5.77;4.60;;;;;;;27.64;25.70;96074.84;5117990;28;20572;-55
2022/04/29 10:02:07;;;;;;;6.17;5.03;;;;;;;27.40;25.35;96074.38;5118403;28;20250;-52
2022/04/29 10:04:39;;;;;;;7.07;4.23;;;;;;;28.33;24.38;96077.09;5118512;28;20226;-54
2022/04/29 10:07:07;;;;;;;4.90;4.40;;;;;;;27.45;24.08;96068.03;5118368;28;20183;-53
2022/04/29 10:09:35;;;;;;;5.43;4.60;;;;;;;27.23;23.67;96067.84;5118012;28;20663;-57
2022/04/29 10:12:07;;;;;;;6.87;4.70;;;;;;;25.50;25.02;96086.13;5136187;28;20235;-66
2022/04/29 10:14:36;;;;;;;4.73;4.23;;;;;;;27.21;24.58;96075.97;5117661;28;20195;-66
2022/04/29 10:22:51;;;;;;;5.90;4.43;;;;;;;27.25;24.25;96079.34;5136459;28;20193;-67
2022/04/29 10:25:22;;;;;;;5.73;4.70;;;;;;;26.97;24.90;96055.81;5117293;28;20218;-67
2022/04/29 10:27:52;;;;;;;5.27;4.33;;;;;;;27.40;24.33;96049.13;5116611;28;20206;-58
2022/04/29 10:30:33;;;;;;;5.10;4.60;;;;;;;26.59;25.16;96058.97;5117712;28;20187;-67
2022/04/29 10:32:59;;;;;;;4.70;4.27;;;;;;;25.37;26.49;96052.84;5117291;28;20194;-68
2022/04/29 10:35:43;;;;;;;4.63;4.23;;;;;;;25.61;26.50;96059.09;5117931;28;20183;-67
2022/04/29 10:38:25;;;;;;;5.60;4.37;;;;;;;24.28;26.45;96063.44;5117116;28;21036;-67
2022/04/29 10:41:18;;;;;;;8.93;4.27;;;;;;;25.03;25.78;96059.09;5117522;28;20643;-67
2022/04/29 10:43:50;;;;;;;5.57;4.20;;;;;;;25.00;25.58;96054.47;5113140;28;20215;-67
2022/04/29 10:46:20;;;;;;;4.13;3.73;;;;;;;26.28;25.07;96044.81;5117401;28;20628;-64
2022/04/29 10:48:46;;;;;;;5.00;3.90;;;;;;;25.54;25.86;96042.69;5117333;28;20183;-53
2022/04/29 10:51:26;;;;;;;6.37;4.40;;;;;;;26.59;24.70;96041.34;5117466;28;20731;-53
2022/04/29 10:53:53;;;;;;;5.17;4.03;;;;;;;25.96;24.77;96045.88;5117085;28;20656;-54
2022/04/29 10:56:31;;;;;;;4.13;3.73;;;;;;;25.95;24.54;96029.53;5117297;28;20237;-54
2022/04/29 10:59:26;;;;;;;4.33;3.83;;;;;;;24.97;25.31;96033.06;5135105;28;20217;-55
2022/04/29 11:02:08;;;;;;;4.23;3.60;;;;;;;25.66;24.76;96027.63;5116632;28;20183;-52
2022/04/29 11:04:34;;;;;;;4.70;3.80;;;;;;;27.18;23.77;96020.84;5117251;28;20217;-58
2022/04/29 11:07:00;;;;;;;5.60;3.87;;;;;;;25.78;23.11;96028.56;5135179;28;20171;-55
2022/04/29 11:09:26;;;;;;;4.10;3.70;;;;;;;25.02;23.89;96018.41;5117118;28;20189;-54
2022/04/29 11:11:52;;;;;;;4.47;4.00;;;;;;;25.86;23.50;96024.88;5116673;28;20524;-53
2022/04/29 11:14:18;;;;;;;4.00;3.60;;;;;;;25.17;24.16;96013.59;5116842;28;20244;-54
2022/04/29 11:16:52;;;;;;;4.33;3.40;;;;;;;24.78;24.81;96029.69;5117202;28;20187;-54
2022/04/29 11:19:22;;;;;;;6.03;3.70;;;;;;;25.55;24.63;96009.88;5116804;28;20193;-53
2022/04/29 11:24:45;;;;;;;5.17;3.63;;;;;;;25.29;23.94;96010.53;5135298;27;20209;-68
2022/04/29 11:27:11;;;;;;;3.60;3.30;;;;;;;24.24;24.76;96010.56;5116604;28;20179;-69
2022/04/29 11:29:44;;;;;;;5.47;3.37;;;;;;;24.90;25.17;96011.06;5116936;28;20263;-69
2022/04/29 11:32:10;;;;;;;4.20;3.80;;;;;;;25.24;24.76;95996.41;5116508;28;20183;-69
2022/04/29 11:34:36;;;;;;;4.40;3.60;;;;;;;24.74;25.28;95992.78;5116345;28;20181;-71
2022/04/29 11:37:01;;;;;;;3.63;3.10;;;;;;;23.63;26.61;96002.88;5116439;28;20332;-69
2022/04/29 11:39:26;;;;;;;4.53;3.53;;;;;;;23.16;27.49;96004.78;5116069;28;20187;-69
2022/04/29 11:41:59;;;;;;;5.90;3.40;;;;;;;22.56;28.88;95987.28;5117008;28;20483;-58
2022/04/29 11:44:43;;;;;;;4.77;4.00;;;;;;;22.28;28.98;95992.84;5116340;28;20203;-55
2022/04/29 11:47:08;;;;;;;4.20;3.80;;;;;;;21.74;28.69;95989.25;5116316;28;20273;-53
2022/04/29 11:49:34;;;;;;;3.50;3.20;;;;;;;22.61;28.66;95976.28;5116379;28;20275;-49
2022/04/29 11:52:25;;;;;;;4.00;3.33;;;;;;;22.02;28.87;95983.28;5116593;28;20190;-51
2022/04/29 11:54:55;;;;;;;3.60;3.30;;;;;;;22.54;27.96;95987.00;5116837;28;20654;-52